Time;durP1;ratioP1;P1;durP2;ratioP2;P2;SDS_P1;SDS_P2;PMS_P1;PMS_P2;Temp;Humidity;BMP_temperature;BMP_pressure;BME280_temperature;BME280_humidity;BME280_pressure;Samples;Min_cycle;Max_cycle;Signal;HPM_P1;HPM_P2
2022/11/28 00:01:37;;;;;;;16.45;8.55;;;;;;;6.18;100.00;100867.03;5068886;28;20044;-51
2022/11/28 00:04:15;;;;;;;14.30;8.32;;;;;;;6.30;100.00;100867.38;5075084;28;20443;-48
2022/11/28 00:06:49;;;;;;;11.82;7.50;;;;;;;6.21;100.00;100869.50;5105515;28;20045;-52
2022/11/28 00:09:19;;;;;;;13.75;8.60;;;;;;;6.31;100.00;100861.25;5070370;28;20045;-53
2022/11/28 00:11:48;;;;;;;15.43;8.23;;;;;;;6.22;100.00;100860.75;5073859;28;20060;-50
2022/11/28 00:14:18;;;;;;;12.73;7.93;;;;;;;6.28;100.00;100864.84;5074696;28;20105;-50
2022/11/28 00:16:48;;;;;;;14.68;8.73;;;;;;;6.21;100.00;100859.06;5107260;28;20046;-52
2022/11/28 00:19:16;;;;;;;15.63;8.75;;;;;;;6.25;100.00;100858.00;5074982;28;20076;-48
2022/11/28 00:21:44;;;;;;;14.48;8.70;;;;;;;6.25;100.00;100862.38;5074482;28;20057;-52
2022/11/28 00:24:12;;;;;;;14.10;8.77;;;;;;;6.28;100.00;100864.00;5074352;28;20503;-50
2022/11/28 00:26:42;;;;;;;15.15;8.80;;;;;;;6.26;100.00;100861.47;5074090;28;20055;-52
2022/11/28 00:29:10;;;;;;;13.85;8.20;;;;;;;6.23;100.00;100859.84;5074914;28;20048;-52
2022/11/28 00:31:42;;;;;;;13.40;8.32;;;;;;;6.22;100.00;100857.31;5074722;28;20094;-50
2022/11/28 00:34:14;;;;;;;13.75;7.85;;;;;;;6.24;100.00;100856.31;5074539;28;20483;-51
2022/11/28 00:36:44;;;;;;;15.57;7.82;;;;;;;6.28;100.00;100857.00;5074540;28;20041;-53
2022/11/28 00:39:13;;;;;;;14.45;7.55;;;;;;;6.34;100.00;100848.03;5074571;28;20076;-52
2022/11/28 00:41:42;;;;;;;13.20;8.07;;;;;;;6.35;100.00;100847.13;5074441;28;20166;-56
2022/11/28 00:44:10;;;;;;;13.38;7.25;;;;;;;6.34;100.00;100845.41;5074411;28;20052;-57
2022/11/28 00:46:39;;;;;;;13.63;7.68;;;;;;;6.36;100.00;100844.44;5072532;28;20056;-56
2022/11/28 00:49:07;;;;;;;12.90;7.00;;;;;;;6.46;100.00;100839.59;5070872;28;20486;-52
2022/11/28 00:51:37;;;;;;;11.82;6.82;;;;;;;6.40;100.00;100839.91;5072946;28;20040;-51
2022/11/28 00:54:06;;;;;;;12.50;6.78;;;;;;;6.39;100.00;100839.06;5073292;28;20418;-53
2022/11/28 00:56:38;;;;;;;12.70;6.70;;;;;;;6.44;100.00;100838.84;5073864;28;20049;-50
2022/11/28 00:59:06;;;;;;;13.20;7.10;;;;;;;6.41;100.00;100829.38;5073464;28;20044;-50
2022/11/28 01:01:36;;;;;;;11.57;6.90;;;;;;;6.45;100.00;100831.84;5073625;28;20052;-51
2022/11/28 01:04:07;;;;;;;11.32;6.65;;;;;;;6.43;100.00;100824.09;5073857;28;20072;-52
2022/11/28 01:06:39;;;;;;;10.18;5.68;;;;;;;6.39;100.00;100818.19;5073810;28;20040;-51
2022/11/28 01:09:10;;;;;;;13.13;6.53;;;;;;;6.48;100.00;100816.03;5072849;28;20048;-50
2022/11/28 01:11:40;;;;;;;12.23;6.57;;;;;;;6.46;100.00;100810.88;5068907;28;20483;-51
2022/11/28 01:14:10;;;;;;;11.95;6.93;;;;;;;6.44;100.00;100815.34;5072560;28;20515;-51
2022/11/28 01:16:39;;;;;;;14.60;7.43;;;;;;;6.49;100.00;100820.31;5073579;28;20434;-52
2022/11/28 01:19:08;;;;;;;12.30;7.05;;;;;;;6.49;100.00;100813.34;5073468;28;20055;-50
2022/11/28 01:21:37;;;;;;;11.23;6.85;;;;;;;6.45;100.00;100808.31;5073389;28;20040;-56
2022/11/28 01:24:06;;;;;;;11.32;6.50;;;;;;;6.48;100.00;100811.66;5073580;28;20131;-56
2022/11/28 01:26:34;;;;;;;14.32;6.55;;;;;;;6.49;100.00;100810.75;5073478;28;20495;-56
2022/11/28 01:29:02;;;;;;;11.52;6.30;;;;;;;6.51;100.00;100798.44;5070325;28;20123;-56
2022/11/28 01:31:31;;;;;;;11.80;6.63;;;;;;;6.52;100.00;100797.50;5067558;28;20580;-56
2022/11/28 01:33:59;;;;;;;11.35;6.25;;;;;;;6.55;100.00;100804.38;5070767;28;20052;-56
2022/11/28 01:36:28;;;;;;;10.52;6.50;;;;;;;6.58;100.00;100805.03;5073170;28;20053;-56
2022/11/28 01:38:57;;;;;;;11.02;5.80;;;;;;;6.55;100.00;100805.19;5073443;28;20048;-51
2022/11/28 01:41:28;;;;;;;10.77;5.63;;;;;;;6.60;100.00;100799.75;5071893;28;20049;-52
2022/11/28 01:44:06;;;;;;;10.73;5.47;;;;;;;6.60;100.00;100802.38;5073323;28;20113;-56
2022/11/28 01:46:35;;;;;;;10.98;5.25;;;;;;;6.62;100.00;100808.34;5073146;28;20102;-49
2022/11/28 01:49:11;;;;;;;10.48;5.10;;;;;;;6.67;100.00;100810.75;5073014;28;20045;-49
2022/11/28 01:51:42;;;;;;;9.98;5.20;;;;;;;6.64;100.00;100803.06;5073072;28;20059;-52
2022/11/28 01:54:12;;;;;;;9.73;5.60;;;;;;;6.68;100.00;100797.63;5072824;28;20110;-56
2022/11/28 01:56:47;;;;;;;10.45;6.22;;;;;;;6.72;100.00;100803.53;5071491;28;20048;-51
2022/11/28 01:59:16;;;;;;;12.37;5.97;;;;;;;6.68;100.00;100802.84;5072921;28;20064;-50
2022/11/28 02:01:45;;;;;;;9.20;5.40;;;;;;;6.65;100.00;100799.53;5072660;28;20051;-51
2022/11/28 02:04:14;;;;;;;13.35;5.80;;;;;;;6.70;100.00;100797.53;5072751;28;20641;-49
2022/11/28 02:06:43;;;;;;;10.38;5.78;;;;;;;6.74;100.00;100799.06;5072548;28;20079;-49
2022/11/28 02:09:14;;;;;;;12.30;6.63;;;;;;;6.69;100.00;100799.28;5072673;28;20442;-50
2022/11/28 02:12:06;;;;;;;11.48;6.15;;;;;;;6.71;100.00;100794.00;5072660;28;20144;-53
2022/11/28 02:15:02;;;;;;;10.98;6.75;;;;;;;6.64;100.00;100788.25;5072621;28;20048;-51
2022/11/28 02:17:46;;;;;;;11.68;6.47;;;;;;;6.66;100.00;100789.00;5072278;28;20059;-50
2022/11/28 02:21:02;;;;;;;9.77;5.43;;;;;;;6.67;100.00;100780.22;5072539;28;20106;-50
2022/11/28 02:23:45;;;;;;;9.57;5.47;;;;;;;6.69;100.00;100783.59;5054344;28;20060;-49
2022/11/28 02:26:59;;;;;;;9.80;5.57;;;;;;;6.66;100.00;100783.75;5072741;28;20114;-48
2022/11/28 02:30:01;;;;;;;12.23;5.53;;;;;;;6.71;100.00;100783.56;5071880;28;20105;-51
2022/11/28 02:32:52;;;;;;;10.68;5.53;;;;;;;6.72;100.00;100782.59;5068629;28;20064;-50
2022/11/28 02:35:27;;;;;;;10.02;5.68;;;;;;;6.63;100.00;100777.88;5069989;28;20111;-48
2022/11/28 02:38:06;;;;;;;11.32;5.85;;;;;;;6.71;100.00;100776.53;5072196;28;20056;-50
2022/11/28 02:40:39;;;;;;;11.82;6.10;;;;;;;6.68;100.00;100778.47;5072401;28;20052;-52
2022/11/28 02:43:16;;;;;;;10.02;5.57;;;;;;;6.67;100.00;100779.41;5072529;28;20366;-50
2022/11/28 02:45:53;;;;;;;13.18;7.15;;;;;;;6.57;100.00;100776.38;5072432;28;20082;-50
2022/11/28 02:48:29;;;;;;;11.98;6.80;;;;;;;6.57;100.00;100779.84;5072268;28;20044;-51
2022/11/28 02:51:05;;;;;;;11.07;6.57;;;;;;;6.54;100.00;100766.91;5072174;28;20098;-49
2022/11/28 02:53:35;;;;;;;10.80;6.43;;;;;;;6.57;100.00;100772.00;5070948;28;20080;-50
2022/11/28 02:56:04;;;;;;;13.32;6.97;;;;;;;6.57;100.00;100769.41;5072130;28;20048;-47
2022/11/28 02:58:32;;;;;;;12.18;6.55;;;;;;;6.62;100.00;100770.94;5071994;28;20037;-52
2022/11/28 03:01:01;;;;;;;11.65;6.50;;;;;;;6.66;100.00;100767.25;5072218;28;20044;-47
2022/11/28 03:03:57;;;;;;;11.07;6.28;;;;;;;6.60;100.00;100764.00;5072370;28;20391;-48
2022/11/28 03:06:37;;;;;;;11.15;5.45;;;;;;;6.66;100.00;100767.25;5071974;28;20048;-50
2022/11/28 03:09:22;;;;;;;11.05;6.15;;;;;;;6.64;100.00;100763.84;5071987;28;20487;-48
2022/11/28 03:12:03;;;;;;;12.15;6.13;;;;;;;6.67;100.00;100768.94;5071933;28;20052;-49
2022/11/28 03:14:47;;;;;;;9.43;6.00;;;;;;;6.64;100.00;100771.69;5071632;28;20041;-50
2022/11/28 03:17:24;;;;;;;13.63;6.20;;;;;;;6.72;100.00;100772.16;5071744;28;20057;-51
2022/11/28 03:20:02;;;;;;;11.07;6.13;;;;;;;6.71;100.00;100770.47;5075835;28;20052;-52
2022/11/28 03:22:39;;;;;;;10.32;5.60;;;;;;;6.68;100.00;100770.63;5075467;28;20093;-52
2022/11/28 03:25:17;;;;;;;10.65;6.00;;;;;;;6.69;100.00;100770.53;5074299;28;20090;-51
2022/11/28 03:27:51;;;;;;;10.68;5.95;;;;;;;6.72;100.00;100769.53;5075366;28;20059;-51
2022/11/28 03:30:28;;;;;;;10.63;6.38;;;;;;;6.77;100.00;100764.94;5075765;28;20049;-51
2022/11/28 03:32:57;;;;;;;11.35;6.18;;;;;;;6.73;100.00;100768.63;5075587;28;20511;-50
2022/11/28 03:35:31;;;;;;;11.95;6.85;;;;;;;6.72;100.00;100759.94;5075413;28;20507;-50
2022/11/28 03:38:05;;;;;;;12.38;7.22;;;;;;;6.73;100.00;100779.06;5075476;28;20074;-50
2022/11/28 03:40:42;;;;;;;10.75;6.93;;;;;;;6.73;100.00;100773.84;5075859;28;20442;-52
2022/11/28 03:43:13;;;;;;;14.25;7.72;;;;;;;6.69;100.00;100764.47;5075620;28;20045;-50
2022/11/28 03:45:47;;;;;;;13.85;8.18;;;;;;;6.67;100.00;100766.34;5075649;28;20434;-52
2022/11/28 03:48:20;;;;;;;13.05;7.85;;;;;;;6.67;100.00;100769.78;5075439;28;20455;-51
2022/11/28 03:50:55;;;;;;;13.73;7.78;;;;;;;6.73;100.00;100776.47;5075155;28;20040;-48
2022/11/28 03:53:27;;;;;;;11.45;7.18;;;;;;;6.77;100.00;100772.78;5075223;28;20076;-47
2022/11/28 03:56:02;;;;;;;14.40;8.55;;;;;;;6.74;100.00;100771.16;5074135;28;20499;-48
2022/11/28 03:58:36;;;;;;;12.70;7.85;;;;;;;6.78;100.00;100774.47;5074693;28;20094;-48
2022/11/28 04:01:12;;;;;;;13.88;7.75;;;;;;;6.75;100.00;100775.47;5074739;28;20048;-55
2022/11/28 04:03:50;;;;;;;12.32;7.85;;;;;;;6.70;100.00;100772.22;5075131;28;20403;-54
2022/11/28 04:06:25;;;;;;;12.32;7.68;;;;;;;6.68;100.00;100771.47;5074767;28;20095;-54
2022/11/28 04:09:02;;;;;;;12.85;8.13;;;;;;;6.68;100.00;100770.63;5073532;28;20507;-51
2022/11/28 04:11:37;;;;;;;12.75;8.23;;;;;;;6.66;100.00;100775.09;5070830;28;20122;-52
2022/11/28 04:14:10;;;;;;;12.35;8.18;;;;;;;6.71;100.00;100773.09;5074377;28;20233;-55
2022/11/28 04:16:45;;;;;;;15.00;8.95;;;;;;;6.73;100.00;100779.06;5069051;28;20045;-55
2022/11/28 04:19:27;;;;;;;15.00;7.57;;;;;;;6.76;100.00;100779.78;5073247;28;20044;-51
2022/11/28 04:22:01;;;;;;;13.43;7.72;;;;;;;6.82;100.00;100773.41;5074445;28;20057;-55
2022/11/28 04:24:34;;;;;;;12.38;7.53;;;;;;;6.79;100.00;100780.53;5074536;28;20140;-54
2022/11/28 04:27:06;;;;;;;14.27;7.47;;;;;;;6.81;100.00;100776.94;5073711;28;20037;-55
2022/11/28 04:29:38;;;;;;;12.95;7.97;;;;;;;6.75;100.00;100774.63;5068089;28;20045;-55
2022/11/28 04:32:10;;;;;;;14.10;8.85;;;;;;;6.69;100.00;100778.38;5070926;28;20114;-55
2022/11/28 04:34:41;;;;;;;13.82;8.40;;;;;;;6.73;100.00;100779.06;5071078;28;20094;-55
2022/11/28 04:37:14;;;;;;;13.40;8.20;;;;;;;6.71;100.00;100776.53;5071445;28;20068;-55
2022/11/28 04:39:44;;;;;;;13.85;8.35;;;;;;;6.70;100.00;100784.47;5072505;28;20796;-55
2022/11/28 04:42:16;;;;;;;12.82;8.13;;;;;;;6.77;100.00;100778.84;5072421;28;20072;-55
2022/11/28 04:44:49;;;;;;;13.68;7.95;;;;;;;6.76;100.00;100781.53;5069341;28;20044;-55
2022/11/28 04:47:18;;;;;;;12.00;7.43;;;;;;;6.75;100.00;100779.88;5073745;28;20049;-49
2022/11/28 04:49:49;;;;;;;13.18;7.78;;;;;;;6.76;100.00;100779.78;5074273;28;20079;-55
2022/11/28 04:52:24;;;;;;;13.25;8.30;;;;;;;6.70;100.00;100780.06;5074125;28;20601;-53
2022/11/28 04:54:57;;;;;;;14.27;8.10;;;;;;;6.71;100.00;100781.78;5074128;28;20143;-47
2022/11/28 04:57:32;;;;;;;12.63;7.63;;;;;;;6.68;100.00;100781.06;5074179;28;20056;-52
2022/11/28 05:00:05;;;;;;;12.85;7.97;;;;;;;6.72;100.00;100788.69;5073877;28;20443;-51
2022/11/28 05:02:35;;;;;;;13.05;7.28;;;;;;;6.70;100.00;100785.31;5074193;28;20053;-51
2022/11/28 05:05:08;;;;;;;12.57;8.45;;;;;;;6.70;100.00;100780.06;5073964;28;20050;-55
2022/11/28 05:07:38;;;;;;;14.00;7.60;;;;;;;6.76;100.00;100774.56;5071167;28;20498;-51
2022/11/28 05:10:08;;;;;;;11.82;7.75;;;;;;;6.74;100.00;100783.38;5070128;28;20144;-51
2022/11/28 05:12:36;;;;;;;11.15;7.97;;;;;;;6.75;100.00;100785.09;5073697;28;20053;-52
2022/11/28 05:15:06;;;;;;;11.65;7.43;;;;;;;6.74;100.00;100783.38;5073779;28;20060;-48
2022/11/28 05:17:34;;;;;;;11.43;6.95;;;;;;;6.76;100.00;100790.25;5073689;28;20101;-48
2022/11/28 05:20:09;;;;;;;13.25;8.07;;;;;;;6.76;100.00;100789.38;5073375;28;20040;-48
2022/11/28 05:22:39;;;;;;;11.57;7.63;;;;;;;6.77;100.00;100791.06;5073159;28;20087;-47
2022/11/28 05:25:08;;;;;;;11.68;6.90;;;;;;;6.81;100.00;100782.16;5073548;28;20045;-47
2022/11/28 05:27:36;;;;;;;11.85;7.55;;;;;;;6.73;100.00;100787.75;5073290;28;20045;-50
2022/11/28 05:30:06;;;;;;;12.43;7.38;;;;;;;6.75;100.00;100788.53;5072127;28;20365;-55
2022/11/28 05:32:35;;;;;;;11.30;6.72;;;;;;;6.77;100.00;100791.06;5073226;28;20041;-54
2022/11/28 05:35:04;;;;;;;12.73;7.15;;;;;;;6.83;100.00;100795.13;5073235;28;20527;-55
2022/11/28 05:37:32;;;;;;;10.65;6.95;;;;;;;6.86;100.00;100801.06;5073252;28;20044;-54
2022/11/28 05:40:02;;;;;;;12.57;7.35;;;;;;;6.86;100.00;100793.22;5072782;28;20048;-55
2022/11/28 05:42:32;;;;;;;11.00;7.28;;;;;;;6.81;100.00;100795.22;5103153;28;20056;-55
2022/11/28 05:45:01;;;;;;;11.40;7.38;;;;;;;6.78;100.00;100798.00;5066570;28;20365;-55
2022/11/28 05:47:30;;;;;;;14.38;7.50;;;;;;;6.79;100.00;100791.84;5072097;28;20044;-54
2022/11/28 05:49:58;;;;;;;11.98;7.20;;;;;;;6.86;100.00;100800.25;5073185;28;20079;-47
2022/11/28 05:52:31;;;;;;;11.35;6.75;;;;;;;6.86;100.00;100806.31;5072834;28;20083;-51
2022/11/28 05:55:00;;;;;;;;;;;;;;;6.88;100.00;100804.44;5073366;28;20064;-51
2022/11/28 05:57:32;;;;;;;11.45;6.13;;;;;;;6.89;100.00;100803.53;5072828;28;19921;-49
2022/11/28 06:00:00;;;;;;;10.32;6.50;;;;;;;6.83;100.00;100801.22;5072661;28;20096;-50
2022/11/28 06:02:28;;;;;;;10.38;6.47;;;;;;;6.87;100.00;100801.91;5073093;28;20041;-49
2022/11/28 06:04:56;;;;;;;11.13;7.15;;;;;;;6.91;100.00;100804.31;5071447;28;20059;-49
2022/11/28 06:07:25;;;;;;;13.93;7.47;;;;;;;6.90;100.00;100807.00;5072753;28;20147;-53
2022/11/28 06:09:53;;;;;;;10.48;6.80;;;;;;;6.92;100.00;100805.97;5072646;28;20036;-49
2022/11/28 06:12:21;;;;;;;10.45;7.38;;;;;;;6.89;100.00;100803.53;5071420;28;20056;-51
2022/11/28 06:14:51;;;;;;;9.23;6.53;;;;;;;6.90;100.00;100802.59;5071057;28;20090;-53
2022/11/28 06:17:19;;;;;;;11.70;7.13;;;;;;;6.87;100.00;100804.53;5068865;28;20146;-50
2022/11/28 06:19:47;;;;;;;11.30;7.38;;;;;;;6.90;100.00;100801.78;5070801;28;20068;-51
2022/11/28 06:22:16;;;;;;;10.68;6.90;;;;;;;6.97;100.00;100808.38;5072885;28;20072;-50
2022/11/28 06:24:44;;;;;;;11.70;7.18;;;;;;;6.97;100.00;100803.16;5072491;28;20071;-50
2022/11/28 06:27:12;;;;;;;10.90;7.07;;;;;;;6.97;100.00;100802.28;5072428;28;20056;-50
2022/11/28 06:29:40;;;;;;;12.55;7.47;;;;;;;6.97;100.00;100808.38;5072499;28;20364;-49
2022/11/28 06:32:13;;;;;;;11.15;6.63;;;;;;;6.90;100.00;100804.38;5072429;28;20114;-51
2022/11/28 06:34:48;;;;;;;10.93;7.75;;;;;;;6.93;100.00;100806.84;5072510;28;20388;-51
2022/11/28 06:37:16;;;;;;;11.95;7.68;;;;;;;7.00;100.00;100812.63;5072362;28;20106;-51
2022/11/28 06:39:44;;;;;;;12.63;7.28;;;;;;;6.99;100.00;100810.91;5072004;28;20135;-49
2022/11/28 06:42:14;;;;;;;11.75;7.18;;;;;;;6.96;100.00;100811.06;5071900;28;20570;-50
2022/11/28 06:44:43;;;;;;;11.80;7.72;;;;;;;7.00;100.00;100813.44;5072136;28;20110;-51
2022/11/28 06:47:11;;;;;;;13.10;7.70;;;;;;;6.97;100.00;100815.34;5072177;28;20380;-52
2022/11/28 06:49:40;;;;;;;12.65;8.18;;;;;;;6.94;100.00;100812.00;5072167;28;20037;-47
2022/11/28 06:52:09;;;;;;;11.77;7.57;;;;;;;6.97;100.00;100807.50;5072121;28;20061;-51
2022/11/28 06:54:37;;;;;;;13.10;7.97;;;;;;;6.87;100.00;100809.75;5076330;28;20109;-48
2022/11/28 06:57:07;;;;;;;13.20;8.65;;;;;;;6.93;100.00;100806.84;5076450;28;20060;-51
2022/11/28 06:59:36;;;;;;;13.50;7.90;;;;;;;6.89;100.00;100813.97;5076285;28;20067;-52
2022/11/28 07:02:05;;;;;;;11.77;8.55;;;;;;;6.98;100.00;100822.28;5076226;28;20110;-52
2022/11/28 07:04:35;;;;;;;10.93;8.07;;;;;;;6.97;100.00;100818.84;5076412;28;20056;-52
2022/11/28 07:07:04;;;;;;;12.15;8.10;;;;;;;7.00;100.00;100823.06;5076169;28;20040;-51
2022/11/28 07:09:32;;;;;;;11.75;7.95;;;;;;;6.99;100.00;100824.81;5075431;28;20041;-50
2022/11/28 07:12:00;;;;;;;12.18;8.48;;;;;;;7.01;100.00;100822.13;5075817;28;20122;-49
2022/11/28 07:14:32;;;;;;;12.68;8.93;;;;;;;6.98;100.00;100830.13;5075465;28;20415;-51
2022/11/28 07:17:00;;;;;;;12.23;8.57;;;;;;;7.05;100.00;100831.53;5075507;28;20395;-49
2022/11/28 07:19:28;;;;;;;13.25;8.13;;;;;;;7.03;100.00;100826.34;5075868;28;20479;-50
2022/11/28 07:21:56;;;;;;;11.82;8.40;;;;;;;7.06;100.00;100830.59;5075771;28;20056;-48
2022/11/28 07:24:26;;;;;;;14.82;9.05;;;;;;;6.99;100.00;100831.84;5075801;28;20434;-50
2022/11/28 07:26:54;;;;;;;12.23;8.63;;;;;;;6.94;100.00;100824.22;5075721;28;20094;-50
2022/11/28 07:29:23;;;;;;;12.02;8.40;;;;;;;6.97;100.00;100818.84;5075814;28;20040;-50
2022/11/28 07:31:51;;;;;;;13.32;8.65;;;;;;;7.02;100.00;100831.66;5075618;28;20048;-49
2022/11/28 07:34:19;;;;;;;12.90;8.88;;;;;;;6.99;100.00;100837.91;5075689;28;20048;-48
2022/11/28 07:36:47;;;;;;;13.18;8.55;;;;;;;6.94;100.00;100839.91;5075522;28;20448;-51
2022/11/28 07:39:16;;;;;;;12.77;8.40;;;;;;;6.94;100.00;100832.91;5075668;28;20450;-49
2022/11/28 07:41:45;;;;;;;15.48;8.93;;;;;;;7.01;100.00;100840.44;5075514;28;20060;-49
2022/11/28 07:44:16;;;;;;;14.27;8.65;;;;;;;7.01;100.00;100843.03;5075237;28;20400;-51
2022/11/28 07:46:45;;;;;;;13.40;8.48;;;;;;;6.95;100.00;100836.34;5075341;28;20049;-48
2022/11/28 07:49:14;;;;;;;12.98;9.13;;;;;;;6.95;100.00;100838.97;5075311;28;20492;-50
2022/11/28 07:51:42;;;;;;;14.63;9.70;;;;;;;7.01;100.00;100845.66;5075439;28;20111;-52
2022/11/28 07:54:10;;;;;;;13.13;8.80;;;;;;;7.00;100.00;100844.00;5075157;28;20045;-49
2022/11/28 07:56:39;;;;;;;13.02;8.93;;;;;;;7.09;100.00;100839.13;5075037;28;20036;-50
2022/11/28 07:59:28;;;;;;;12.20;8.77;;;;;;;7.01;100.00;100829.97;5074992;28;20487;-49
2022/11/28 08:01:56;;;;;;;13.32;8.93;;;;;;;7.05;100.00;100842.00;5074708;28;20079;-51
2022/11/28 08:04:25;;;;;;;12.52;8.63;;;;;;;7.01;100.00;100840.44;5074696;28;20048;-49
2022/11/28 08:06:53;;;;;;;12.77;8.98;;;;;;;7.04;100.00;100848.16;5074756;28;20044;-53
2022/11/28 08:09:21;;;;;;;12.60;8.73;;;;;;;7.04;100.00;100856.00;5074837;28;20048;-50
2022/11/28 08:11:50;;;;;;;13.30;9.82;;;;;;;7.04;100.00;100848.97;5074436;28;20044;-48
2022/11/28 08:14:18;;;;;;;11.95;9.25;;;;;;;7.10;100.00;100845.19;5074281;28;20057;-50
2022/11/28 08:16:48;;;;;;;11.15;8.75;;;;;;;7.06;100.00;100851.50;5074372;28;20376;-50
2022/11/28 08:19:17;;;;;;;12.85;8.88;;;;;;;7.10;100.00;100851.31;5074633;28;20572;-50
2022/11/28 08:21:51;;;;;;;12.40;8.63;;;;;;;7.10;100.00;100859.16;5074495;28;20058;-50
2022/11/28 08:24:19;;;;;;;12.10;9.07;;;;;;;7.09;100.00;100854.00;5074670;28;20384;-51
2022/11/28 08:26:47;;;;;;;11.98;9.27;;;;;;;7.12;100.00;100851.22;5074721;28;20491;-51
2022/11/28 08:29:15;;;;;;;11.80;8.57;;;;;;;7.13;100.00;100852.91;5072243;28;20048;-50
2022/11/28 08:31:44;;;;;;;11.35;9.05;;;;;;;7.16;100.00;100847.53;5069312;28;20094;-48
2022/11/28 08:34:13;;;;;;;12.35;8.63;;;;;;;7.18;100.00;100850.06;5074269;28;20040;-49
2022/11/28 08:36:42;;;;;;;11.38;8.32;;;;;;;7.18;100.00;100857.91;5074510;28;20098;-49
2022/11/28 08:39:11;;;;;;;11.48;8.27;;;;;;;7.15;100.00;100851.06;5074492;28;20044;-50
2022/11/28 08:41:57;;;;;;;10.43;7.63;;;;;;;7.21;100.00;100853.38;5074367;28;20123;-50
2022/11/28 08:44:26;;;;;;;11.02;7.63;;;;;;;7.24;100.00;100857.56;5074407;28;20055;-49
2022/11/28 08:46:57;;;;;;;11.00;7.73;;;;;;;7.28;100.00;100864.38;5074456;28;20040;-50
2022/11/28 08:49:30;;;;;;;11.55;7.95;;;;;;;7.28;100.00;100872.22;5074230;28;20094;-50
2022/11/28 08:51:58;;;;;;;11.82;7.85;;;;;;;7.28;100.00;100880.06;5074138;28;20051;-52
2022/11/28 08:54:26;;;;;;;12.15;8.20;;;;;;;7.31;100.00;100873.81;5074049;28;20048;-52
2022/11/28 08:56:54;;;;;;;10.73;7.43;;;;;;;7.33;100.00;100877.22;5073884;28;20048;-53
2022/11/28 08:59:22;;;;;;;10.48;7.97;;;;;;;7.27;100.00;100873.97;5073698;28;20131;-50
2022/11/28 09:01:52;;;;;;;10.88;7.57;;;;;;;7.24;100.00;100874.13;5073444;28;20052;-51
2022/11/28 09:04:21;;;;;;;12.13;8.00;;;;;;;7.21;100.00;100876.91;5073516;28;20506;-48
2022/11/28 09:06:50;;;;;;;11.32;8.40;;;;;;;7.23;100.00;100882.06;5073608;28;20051;-49
2022/11/28 09:09:19;;;;;;;12.80;7.75;;;;;;;7.32;100.00;100878.13;5073885;28;20072;-50
2022/11/28 09:11:47;;;;;;;12.70;8.50;;;;;;;7.30;100.00;100887.84;5072276;28;20053;-54
2022/11/28 09:14:15;;;;;;;11.05;8.05;;;;;;;7.32;100.00;100889.44;5073745;28;20072;-52
2022/11/28 09:16:43;;;;;;;11.75;7.70;;;;;;;7.30;100.00;100885.22;5072899;28;20509;-53
2022/11/28 09:19:11;;;;;;;12.18;8.07;;;;;;;7.27;100.00;100883.59;5073501;28;20045;-52
2022/11/28 09:21:40;;;;;;;11.30;7.70;;;;;;;7.28;100.00;100882.69;5073133;28;20045;-52
2022/11/28 09:24:12;;;;;;;10.63;7.60;;;;;;;7.33;100.00;100883.28;5073269;28;20056;-53
2022/11/28 09:26:40;;;;;;;11.30;7.20;;;;;;;7.34;100.00;100884.97;5072208;28;20496;-49
2022/11/28 09:29:09;;;;;;;13.40;7.97;;;;;;;7.38;100.00;100878.66;5070480;28;20403;-49
2022/11/28 09:31:37;;;;;;;10.80;7.45;;;;;;;7.40;100.00;100886.44;5069430;28;20064;-49
2022/11/28 09:34:11;;;;;;;11.60;7.90;;;;;;;7.43;100.00;100887.13;5073237;28;20048;-51
2022/11/28 09:36:39;;;;;;;11.15;7.47;;;;;;;7.47;100.00;100887.78;5073033;28;20433;-50
2022/11/28 09:39:08;;;;;;;10.63;7.45;;;;;;;7.44;100.00;100885.34;5072647;28;20040;-55
2022/11/28 09:41:58;;;;;;;12.00;7.38;;;;;;;7.45;100.00;100884.44;5069114;28;20045;-49
2022/11/28 09:44:35;;;;;;;10.98;7.15;;;;;;;7.47;100.00;100887.78;5071530;28;20075;-49
2022/11/28 09:47:10;;;;;;;10.88;7.30;;;;;;;7.53;100.00;100889.28;5072450;28;20143;-52
2022/11/28 09:49:44;;;;;;;11.30;6.85;;;;;;;7.51;100.00;100886.75;5072594;28;20068;-50
2022/11/28 09:52:30;;;;;;;12.52;6.97;;;;;;;7.49;100.00;100888.56;5072925;28;20115;-50
2022/11/28 09:55:06;;;;;;;10.32;7.07;;;;;;;7.50;100.00;100892.91;5073069;28;20384;-56
2022/11/28 09:57:40;;;;;;;12.18;6.80;;;;;;;7.51;100.00;100891.09;5073048;28;20131;-57
2022/11/28 10:00:17;;;;;;;10.98;7.30;;;;;;;7.57;100.00;100901.28;5067795;28;20056;-56
2022/11/28 10:03:03;;;;;;;10.63;7.00;;;;;;;7.57;100.00;100902.13;5068278;28;20045;-56
2022/11/28 10:05:37;;;;;;;12.07;7.20;;;;;;;7.57;100.00;100896.88;5069138;28;20057;-57
2022/11/28 10:08:21;;;;;;;11.02;7.28;;;;;;;7.55;100.00;100908.34;5069258;28;20036;-57
2022/11/28 10:10:58;;;;;;;10.15;6.75;;;;;;;7.61;100.00;100908.88;5068958;28;20177;-50
2022/11/28 10:13:40;;;;;;;11.45;7.15;;;;;;;7.56;100.00;100899.59;5071063;28;20048;-52
2022/11/28 10:16:41;;;;;;;12.13;7.85;;;;;;;7.62;100.00;100896.63;5071778;28;20163;-57
2022/11/28 10:19:13;;;;;;;12.38;8.32;;;;;;;7.64;100.00;100901.81;5069276;28;20045;-57
2022/11/28 10:22:04;;;;;;;10.35;7.50;;;;;;;7.60;100.00;100906.34;5068695;28;20088;-57
2022/11/28 10:24:38;;;;;;;12.23;8.40;;;;;;;7.64;100.00;100912.28;5067986;28;20095;-57
2022/11/28 10:27:07;;;;;;;11.57;8.27;;;;;;;7.63;100.00;100906.19;5069235;28;20045;-57
2022/11/28 10:29:45;;;;;;;11.30;8.18;;;;;;;7.59;100.00;100910.75;5067318;28;20072;-57
2022/11/28 10:32:18;;;;;;;11.48;8.32;;;;;;;7.65;100.00;100903.47;5068866;28;20098;-57
2022/11/28 10:34:51;;;;;;;15.45;10.43;;;;;;;7.68;100.00;100901.56;5069201;28;20056;-57
2022/11/28 10:37:23;;;;;;;13.48;9.43;;;;;;;7.68;100.00;100896.31;5068594;28;20474;-57
2022/11/28 10:39:52;;;;;;;11.85;8.07;;;;;;;7.67;100.00;100894.63;5069553;28;20048;-49
2022/11/28 10:42:28;;;;;;;12.90;8.45;;;;;;;7.75;100.00;100908.16;5071742;28;20090;-57
2022/11/28 10:45:11;;;;;;;11.30;8.05;;;;;;;7.76;100.00;100899.38;5072057;28;20459;-57
2022/11/28 10:47:52;;;;;;;10.45;7.47;;;;;;;7.74;100.00;100900.38;5071925;28;20052;-57
2022/11/28 10:50:25;;;;;;;11.93;8.02;;;;;;;7.78;100.00;100894.94;5068027;28;20044;-57
2022/11/28 10:53:04;;;;;;;11.40;7.75;;;;;;;7.76;100.00;100898.56;5068917;28;20036;-57
2022/11/28 10:55:43;;;;;;;11.43;7.82;;;;;;;7.76;100.00;100899.38;5068174;28;20044;-57
2022/11/28 10:58:21;;;;;;;13.07;7.45;;;;;;;7.76;100.00;100899.38;5068743;28;20048;-57
2022/11/28 11:00:56;;;;;;;11.02;7.65;;;;;;;7.75;100.00;100899.47;5066331;28;20499;-57
2022/11/28 11:03:28;;;;;;;11.40;7.45;;;;;;;7.83;100.00;100897.28;5068037;28;20037;-56
2022/11/28 11:05:56;;;;;;;9.73;7.13;;;;;;;7.86;100.00;100901.53;5071243;28;20048;-56
2022/11/28 11:08:27;;;;;;;11.93;7.80;;;;;;;7.86;100.00;100891.06;5071979;28;20484;-51
2022/11/28 11:11:02;;;;;;;13.85;8.50;;;;;;;7.87;100.00;100895.38;5071968;28;20967;-51
2022/11/28 11:13:33;;;;;;;10.63;7.40;;;;;;;7.91;100.00;100899.50;5071560;28;20507;-50
2022/11/28 11:16:06;;;;;;;10.65;7.72;;;;;;;7.93;100.00;100898.50;5071578;28;20531;-51
2022/11/28 11:18:36;;;;;;;11.13;7.63;;;;;;;7.92;100.00;100885.47;5071876;28;20056;-50
2022/11/28 11:21:14;;;;;;;11.65;7.60;;;;;;;7.90;100.00;100885.56;5071936;28;20055;-51
2022/11/28 11:23:42;;;;;;;12.82;8.07;;;;;;;7.93;100.00;100880.19;5071581;28;20515;-50
2022/11/28 11:26:22;;;;;;;12.10;7.72;;;;;;;7.98;100.00;100886.94;5071921;28;20495;-48
2022/11/28 11:28:51;;;;;;;11.73;7.45;;;;;;;7.98;100.00;100887.78;5070446;28;20049;-51
2022/11/28 11:31:24;;;;;;;12.45;8.25;;;;;;;7.97;100.00;100880.00;5071724;28;20052;-50
2022/11/28 11:34:01;;;;;;;11.63;8.45;;;;;;;7.99;100.00;100886.84;5071640;28;20068;-50
2022/11/28 11:36:31;;;;;;;12.77;8.60;;;;;;;7.93;100.00;100882.78;5071751;28;20049;-49
2022/11/28 11:39:16;;;;;;;16.05;8.95;;;;;;;7.95;100.00;100885.34;5073053;28;20072;-51
2022/11/28 11:41:46;;;;;;;13.00;8.95;;;;;;;7.95;100.00;100886.16;5075391;28;20125;-56